• Join FlightAware (Why Join?)
  • Login
  • US Flag 
11:23PM EDT


 

Airport Tracker/Info


-or-


 

Live Flight TrackerFlight Track Log ✈ SWA59 ✈ 23-Apr-2013 ✈ KSTL - KDAL

Flight Track Log - Related Links

Times and Time Zones

All times are in EDT time to prevent confusion due to time zone crossing. See the SWA59 flight status page for this flight to view local times or setup timezone preferences in your user account.

Time Position Orientation Groundspeed Altitude Reporting Facility
EDT Latitude Longitude Course Direction KTS MPH feet Rate Location/Type
08:23PM 38.7597 -90.3450 301° West 157 181 2,700  Level FAA TRACON SMA TRACON (SMA)
08:23PM 38.7708 -90.3678 302° West 191 220 3,900 3,180 Climbing FAA TRACON SMA TRACON (SMA)
08:23PM 38.7742 -90.3897 281° West 210 242 4,800 2,880 Climbing FAA TRACON SMA TRACON (SMA)
08:24PM 38.7661 -90.4119 245° Southwest 225 259 5,800 3,780 Climbing FAA TRACON SMA TRACON (SMA)
08:24PM 38.7469 -90.4336 221° Southwest 240 276 7,400 4,380 Climbing FAA TRACON SMA TRACON (SMA)
08:24PM 38.7317 -90.4506 221° Southwest 239 275 8,800 4,140 Climbing FAA TRACON SMA TRACON (SMA)
08:25PM 38.7161 -90.4675 220° Southwest 238 274 10,100 4,140 Climbing FAA TRACON SMA TRACON (SMA)
08:25PM 38.6961 -90.4889 220° Southwest 241 277 11,500 3,600 Climbing FAA TRACON SMA TRACON (SMA)
08:25PM 38.6800 -90.5069 221° Southwest 249 287 12,600 3,180 Climbing FAA TRACON SMA TRACON (SMA)
08:26PM 38.6633 -90.5250 220° Southwest 254 292 13,700 3,960 Climbing FAA TRACON SMA TRACON (SMA)
08:26PM 38.6422 -90.5483 221° Southwest 259 298 15,200 3,960 Climbing FAA TRACON SMA TRACON (SMA)
08:26PM 38.6250 -90.5667 220° Southwest 261 300 16,300 3,180 Climbing FAA TRACON SMA TRACON (SMA)
08:27PM 38.6078 -90.5856 221° Southwest 264 304 17,400 3,360 Climbing FAA TRACON SMA TRACON (SMA)
08:27PM 38.5858 -90.6097 221° Southwest 270 311 18,600 3,060 Climbing FAA TRACON SMA TRACON (SMA)
08:27PM 38.5675 -90.6289 219° Southwest 277 319 19,400 2,460 Climbing FAA TRACON SMA TRACON (SMA)
08:28PM 38.5492 -90.6500 222° Southwest 287 330 20,200 2,340 Climbing FAA TRACON SMA TRACON (SMA)
08:28PM 38.5247 -90.6775 221° Southwest 302 348 21,000 2,040 Climbing FAA TRACON SMA TRACON (SMA)
08:28PM 38.5042 -90.7003 221° Southwest 314 361 21,600 1,800 Climbing FAA TRACON SMA TRACON (SMA)
08:29PM 38.4822 -90.7231 219° Southwest 327 376 22,200 2,460 Climbing FAA TRACON SMA TRACON (SMA)
08:29PM 38.4550 -90.7539 222° Southwest 339 390 23,200 3,180 Climbing FAA TRACON SMA TRACON (SMA)
08:29PM 38.4325 -90.7767 218° Southwest 339 390 24,400 3,060 Climbing FAA TRACON SMA TRACON (SMA)
08:30PM 38.4125 -90.8019 225° Southwest 332 382 25,300 2,880 Climbing FAA TRACON SMA TRACON (SMA)
08:30PM 38.3853 -90.8319 221° Southwest 332 382 26,300 2,580 Climbing FAA TRACON SMA TRACON (SMA)
08:30PM 38.3647 -90.8583 225° Southwest 338 389 27,000 2,160 Climbing FAA TRACON SMA TRACON (SMA)
08:31PM 38.3378 -90.8897 222° Southwest 341 392 27,800 2,040 Climbing FAA TRACON SMA TRACON (SMA)
08:31PM 38.3161 -90.9156 223° Southwest 347 399 28,400 1,680 Climbing FAA TRACON SMA TRACON (SMA)
08:31PM 38.2950 -90.9436 226° Southwest 353 406 28,900 1,680 Climbing FAA TRACON SMA TRACON (SMA)
08:32PM 38.2728 -90.9714 224° Southwest 359 413 29,500 1,740 Climbing FAA TRACON SMA TRACON (SMA)
08:32PM 38.2433 -91.0047 222° Southwest 367 422 30,100 1,560 Climbing FAA TRACON SMA TRACON (SMA)
08:32PM 38.2206 -91.0328 224° Southwest 373 429 30,600 1,320 Climbing FAA TRACON SMA TRACON (SMA)
08:33PM 38.1958 -91.0606 221° Southwest 379 436 31,000 1,680 Climbing FAA TRACON SMA TRACON (SMA)
08:33PM 38.1683 -91.0989 228° Southwest 383 441 31,700 1,920 Climbing FAA TRACON SMA TRACON (SMA)
08:33PM 38.1425 -91.1258 219° Southwest 385 443 32,300 1,740 Climbing FAA TRACON SMA TRACON (SMA)
08:34PM 38.1186 -91.1544 223° Southwest 386 444 32,900 2,100 Climbing FAA TRACON SMA TRACON (SMA)
08:34PM 38.0886 -91.1903 223° Southwest 384 442 33,700 2,040 Climbing FAA TRACON SMA TRACON (SMA)
08:34PM 38.0650 -91.2183 223° Southwest 382 440 34,400 1,800 Climbing FAA TRACON SMA TRACON (SMA)
08:35PM 38.0411 -91.2461 222° Southwest 379 436 35,000 1,680 Climbing FAA TRACON SMA TRACON (SMA)
08:35PM 37.9883 -91.3608 240° Southwest 377 434 36,200 1,380 Climbing Kansas City Center
08:36PM 37.9108 -91.4519 223° Southwest 378 435 37,500 1,200 Climbing Kansas City Center
08:37PM 37.8289 -91.5453 222° Southwest 382 440 38,800 1,200 Climbing Kansas City Center
08:38PM 37.7497 -91.6378 223° Southwest 384 442 40,000 540 Climbing Kansas City Center
08:40PM 37.6717 -91.7300 223° Southwest 382 440 40,000  Level Kansas City Center
08:41PM 37.5936 -91.8214 223° Southwest 380 437 40,000  Level Kansas City Center
08:42PM 37.5147 -91.9117 222° Southwest 380 437 40,000  Level Kansas City Center
08:43PM 37.4378 -92.0006 223° Southwest 374 430 40,000  Level Kansas City Center
08:44PM 37.3603 -92.0903 223° Southwest 375 432 40,000  Level Kansas City Center
08:45PM 37.2672 -92.1961 222° Southwest 374 430 40,000  Level Kansas City Center
08:46PM 37.1894 -92.2872 223° Southwest 376 433 40,000  Level Kansas City Center
08:47PM 37.1103 -92.3769 222° Southwest 380 437 40,000  Level Kansas City Center
08:48PM 37.0322 -92.4658 222° Southwest 378 435 40,000  Level Kansas City Center
08:49PM 36.9536 -92.5558 222° Southwest 380 437 40,000  Level Kansas City Center
08:50PM 36.8750 -92.6431 222° Southwest 378 435 40,000  Level Kansas City Center
08:50PM 36.8417 -92.6822 223° Southwest 379 436 40,000  Level Memphis Center
08:51PM 36.7650 -92.7656 221° Southwest 374 430 40,000  Level Memphis Center
08:52PM 36.6903 -92.8539 223° Southwest 374 430 40,000  Level Memphis Center
08:53PM 36.6136 -92.9394 222° Southwest 374 430 40,000  Level Memphis Center
08:54PM 36.5389 -93.0222 222° Southwest 369 425 40,000  Level Memphis Center
08:55PM 36.4619 -93.1050 221° Southwest 369 425 40,000  Level Memphis Center
08:56PM 36.3914 -93.1850 222° Southwest 369 425 40,000  Level Memphis Center
08:57PM 36.3125 -93.2672 220° Southwest 369 425 40,000  Level Memphis Center
08:58PM 36.2353 -93.3547 222° Southwest 369 425 40,000  Level Memphis Center
08:59PM 36.1581 -93.4392 221° Southwest 369 425 40,000  Level Memphis Center
09:00PM 36.0789 -93.5261 222° Southwest 369 425 40,000  Level Memphis Center
09:01PM 35.9994 -93.6128 221° Southwest 375 432 40,000  Level Memphis Center
09:02PM 35.9200 -93.6994 221° Southwest 375 432 40,000  Level Memphis Center
09:03PM 35.8428 -93.7808 221° Southwest 370 426 40,000  Level Memphis Center
09:04PM 35.7631 -93.8669 221° Southwest 370 426 40,000  Level Memphis Center
09:05PM 35.6878 -93.9508 222° Southwest 370 426 40,000  Level Memphis Center
09:06PM 35.6081 -94.0342 220° Southwest 370 426 40,000  Level Memphis Center
09:07PM 35.5306 -94.1175 221° Southwest 370 426 40,000  Level Memphis Center
09:08PM 35.4550 -94.2006 222° Southwest 370 426 40,000  Level Memphis Center
09:09PM 35.3794 -94.2811 221° Southwest 370 426 40,000  Level Memphis Center
09:10PM 35.3017 -94.3667 222° Southwest 370 426 40,000  Level Memphis Center
09:11PM 35.2261 -94.4469 221° Southwest 370 426 40,000  Level Memphis Center
09:13PM 35.1094 -94.5761 222° Southwest 376 433 40,000  Level Fort Worth Center
09:14PM 35.0319 -94.6600 222° Southwest 376 433 40,000  Level Fort Worth Center
09:15PM 34.9417 -94.7286 212° Southwest 382 440 40,000  Level Fort Worth Center
09:16PM 34.8294 -94.7550 191° South 384 442 40,000  Level Fort Worth Center
09:17PM 34.7172 -94.7761 189° South 400 460 40,000 -120 Level Fort Worth Center
09:18PM 34.6031 -94.7997 190° South 412 474 39,800 -660 Descending Fort Worth Center
09:19PM 34.4931 -94.8233 190° South 417 480 38,700 -1,020 Descending Fort Worth Center
09:20PM 34.3828 -94.8417 188° South 412 474 37,800 -1,020 Descending Fort Worth Center
09:21PM 34.2728 -94.8628 189° South 412 474 36,700 -1,500 Descending Fort Worth Center
09:22PM 34.1606 -94.8861 190° South 407 468 34,800 -2,100 Descending Fort Worth Center
09:23PM 34.0483 -94.9094 190° South 407 468 32,600 -1,560 Descending Fort Worth Center
09:24PM 33.9319 -94.9403 192° South 412 474 31,700 -960 Descending Fort Worth Center
09:25PM 33.8222 -94.9808 197° South 417 480 30,700 -1,380 Descending Fort Worth Center
09:26PM 33.7722 -95.0972 243° Southwest 368 423 29,000 -1,860 Descending Fort Worth Center
09:27PM 33.7242 -95.2133 244° Southwest 379 436 27,000 -1,500 Descending Fort Worth Center
09:28PM 33.6761 -95.3317 244° Southwest 385 443 26,000 -840 Descending Fort Worth Center
09:29PM 33.6319 -95.4425 244° Southwest 390 449 25,400 -780 Descending Fort Worth Center
09:30PM 33.5858 -95.5533 243° Southwest 385 443 24,500 -1,080 Descending Fort Worth Center
09:31PM 33.5394 -95.6714 245° Southwest 372 428 23,300 -1,620 Descending Fort Worth Center
09:32PM 33.4989 -95.7644 242° Southwest 355 409 21,300 -2,400 Descending Fort Worth Center
09:33PM 33.4544 -95.8772 245° Southwest 350 403 18,600 -2,460 Descending Fort Worth Center
09:34PM 33.4178 -95.9650 243° Southwest 338 389 16,400 -2,460 Descending Fort Worth Center
09:35PM 33.3753 -96.0703 244° Southwest 323 372 13,700 -2,460 Descending Fort Worth Center
09:36PM 33.3386 -96.1528 242° Southwest 318 366 11,500 -1,800 Descending Fort Worth Center
09:37PM 33.2978 -96.2503 243° Southwest 304 350 10,200 -1,260 Descending Fort Worth Center
09:38PM 33.2692 -96.3203 244° Southwest 281 323 9,100 -1,080 Descending Fort Worth Center
09:39PM 33.2239 -96.3953 234° Southwest 261 300 8,100 -960 Descending Fort Worth Center
09:40PM 33.1825 -96.4603 233° Southwest 255 293 7,200 -600 Descending Fort Worth Center
09:41PM 33.1222 -96.4933 205° Southwest 248 285 6,900 -600 Descending Fort Worth Center
09:42PM 33.0619 -96.5236 203° Southwest 238 274 6,000 -480 Descending Fort Worth Center
09:43PM 33.0058 -96.5514 203° Southwest 232 267 6,000  Level Fort Worth Center
09:44PM 32.9475 -96.5817 204° Southwest 232 267 6,000  Level Fort Worth Center
09:45PM 32.8956 -96.6094 204° Southwest 232 267 6,000 -600 Level Fort Worth Center
09:46PM 32.8331 -96.6419 204° Southwest 232 267 4,900 -1,320 Descending Fort Worth Center
09:46PM 32.8000 -96.6667 212° Southwest 218 251 3,800 -1,200 Descending Dallas / Fort Worth TRACON
09:47PM 32.7333 -96.6833 192° South 210 242 2,800 -660 Descending Dallas / Fort Worth TRACON
09:48PM 32.7500 -96.7333 292° West 167 192 2,500 -240 Descending Dallas / Fort Worth TRACON
09:49PM 32.7667 -96.7667 301° West 144 166 2,400 -420 Descending Dallas / Fort Worth TRACON
09:50PM 32.8000 -96.7833 337° Northwest 131 151 1,700 -720 Descending Dallas / Fort Worth TRACON
09:51PM 32.8167 -96.8167 301° West 127 146 1,100 -660 Descending Dallas / Fort Worth TRACON
09:53PM 32.8333 -96.8500 288° West  Level FlightAware Approximate
10:00PM 32.8471 -96.8518 288° West  Level Estimated